createdAt,value
2023-01-10T00:01:37.953Z,82.17
2023-01-10T00:04:05.124Z,82.38
2023-01-10T00:06:32.424Z,82.65
2023-01-10T00:08:59.604Z,84.33
2023-01-10T00:11:46.183Z,85.12
2023-01-10T00:14:13.440Z,84.41
2023-01-10T00:16:43.014Z,84.36
2023-01-10T00:19:10.943Z,85.31
2023-01-10T00:21:39.888Z,85.09
2023-01-10T00:24:19.486Z,84.34
2023-01-10T00:26:51.559Z,84.07
2023-01-10T00:29:26.374Z,84.82
2023-01-10T00:31:54.043Z,83.90
2023-01-10T00:34:21.561Z,83.70
2023-01-10T00:36:48.852Z,84.47
2023-01-10T00:39:19.309Z,86.50
2023-01-10T00:42:04.925Z,87.89
2023-01-10T00:44:32.385Z,89.17
2023-01-10T00:46:59.715Z,87.49
2023-01-10T00:49:27.224Z,87.23
2023-01-10T00:51:58.447Z,88.29
2023-01-10T00:54:26.375Z,88.82
2023-01-10T00:56:53.757Z,87.49
2023-01-10T00:59:21.450Z,88.54
2023-01-10T01:01:49.110Z,88.57
2023-01-10T01:04:17.109Z,89.37
2023-01-10T01:06:46.184Z,88.42
2023-01-10T01:09:14.290Z,88.78
2023-01-10T01:11:41.778Z,88.10
2023-01-10T01:14:09.017Z,89.75
2023-01-10T01:16:36.264Z,89.11
2023-01-10T01:19:04.187Z,88.10
2023-01-10T01:21:31.496Z,88.22
2023-01-10T01:23:59.107Z,88.51
2023-01-10T01:26:26.873Z,88.07
2023-01-10T01:28:54.352Z,88.08
2023-01-10T01:31:21.797Z,86.66
2023-01-10T01:33:49.109Z,86.77
2023-01-10T01:36:16.546Z,86.43
2023-01-10T01:38:43.812Z,87.02
2023-01-10T01:41:29.684Z,85.53
2023-01-10T01:44:11.547Z,86.25
2023-01-10T01:46:39.397Z,87.40
2023-01-10T01:49:12.279Z,87.42
2023-01-10T01:51:39.804Z,86.34
2023-01-10T01:54:09.460Z,86.63
2023-01-10T01:56:43.063Z,86.00
2023-01-10T01:59:16.519Z,85.93
2023-01-10T02:01:45.876Z,86.65
2023-01-10T02:04:18.083Z,85.15
2023-01-10T02:06:46.565Z,85.13
2023-01-10T02:09:24.280Z,84.87
2023-01-10T02:11:51.215Z,85.20
2023-01-10T02:14:18.199Z,84.24
2023-01-10T02:16:45.091Z,84.96
2023-01-10T02:19:25.378Z,85.36
2023-01-10T02:22:10.556Z,86.33
2023-01-10T02:25:03.317Z,86.19
2023-01-10T02:27:37.755Z,86.90
2023-01-10T02:30:56.920Z,87.60
2023-01-10T02:33:30.972Z,88.54
2023-01-10T02:36:10.801Z,87.82
2023-01-10T02:38:50.712Z,87.70
2023-01-10T02:41:28.742Z,87.22
2023-01-10T02:44:32.108Z,88.34
2023-01-10T02:46:59.404Z,88.25
2023-01-10T02:49:26.468Z,87.57
2023-01-10T02:51:53.975Z,88.67
2023-01-10T02:54:28.078Z,88.90
2023-01-10T02:57:10.869Z,88.44
2023-01-10T02:59:43.987Z,89.44
2023-01-10T03:02:31.821Z,89.41
2023-01-10T03:05:04.760Z,89.59
2023-01-10T03:07:38.536Z,89.77
2023-01-10T03:10:58.384Z,89.32
2023-01-10T03:13:32.131Z,90.06
2023-01-10T03:16:01.026Z,89.82
2023-01-10T03:18:34.042Z,89.99
2023-01-10T03:21:03.956Z,89.27
2023-01-10T03:23:33.285Z,88.81
2023-01-10T03:26:01.331Z,89.34
2023-01-10T03:28:36.010Z,89.25
2023-01-10T03:31:12.187Z,89.77
2023-01-10T03:33:39.334Z,89.48
2023-01-10T03:36:33.011Z,90.12
2023-01-10T03:39:12.070Z,89.67
2023-01-10T03:41:47.889Z,88.05
2023-01-10T03:44:46.376Z,88.96
2023-01-10T03:47:36.129Z,87.70
2023-01-10T03:50:07.840Z,87.33
2023-01-10T03:52:36.050Z,87.05
2023-01-10T03:55:05.881Z,86.66
2023-01-10T03:57:33.549Z,86.89
2023-01-10T04:00:00.938Z,86.77
2023-01-10T04:02:30.920Z,86.56
2023-01-10T04:04:59.442Z,87.51
2023-01-10T04:07:27.305Z,86.77
2023-01-10T04:09:54.690Z,86.15
2023-01-10T04:12:22.176Z,87.61
2023-01-10T04:14:49.499Z,86.67
2023-01-10T04:17:18.088Z,86.70
2023-01-10T04:19:45.631Z,86.86
2023-01-10T04:22:13.318Z,87.46
2023-01-10T04:24:40.893Z,86.88
2023-01-10T04:27:08.334Z,86.58
2023-01-10T04:29:35.550Z,86.61
2023-01-10T04:32:02.828Z,87.91
2023-01-10T04:34:29.931Z,87.65
2023-01-10T04:36:57.369Z,86.72
2023-01-10T04:39:25.029Z,86.91
2023-01-10T04:41:52.468Z,86.21
2023-01-10T04:44:19.912Z,86.22
2023-01-10T04:46:47.339Z,85.71
2023-01-10T04:49:14.690Z,86.16
2023-01-10T04:51:42.061Z,86.64
2023-01-10T04:54:09.535Z,86.17
2023-01-10T04:56:36.778Z,85.77
2023-01-10T04:59:06.667Z,86.31
2023-01-10T05:01:35.831Z,85.28
2023-01-10T05:04:03.629Z,85.74
2023-01-10T05:06:31.311Z,86.07
2023-01-10T05:08:58.432Z,85.40
2023-01-10T05:11:25.707Z,86.15
2023-01-10T05:13:53.110Z,85.15
2023-01-10T05:16:20.613Z,86.30
2023-01-10T05:18:47.931Z,85.52
2023-01-10T05:21:15.438Z,85.98
2023-01-10T05:23:43.102Z,85.79
2023-01-10T05:26:19.167Z,86.96
2023-01-10T05:28:46.509Z,87.12
2023-01-10T05:31:15.966Z,86.84
2023-01-10T05:33:51.153Z,85.94
2023-01-10T05:36:19.311Z,86.78
2023-01-10T05:38:46.949Z,85.75
2023-01-10T05:41:14.461Z,86.18
2023-01-10T05:43:42.253Z,85.75
2023-01-10T05:46:09.806Z,87.55
2023-01-10T05:48:37.206Z,86.50
2023-01-10T05:51:04.875Z,86.79
2023-01-10T05:53:32.148Z,87.41
2023-01-10T05:56:00.982Z,86.66
2023-01-10T05:58:29.572Z,87.82
2023-01-10T06:00:58.161Z,86.73
2023-01-10T06:03:26.984Z,86.92
2023-01-10T06:05:55.419Z,86.64
2023-01-10T06:08:23.259Z,86.68
2023-01-10T06:10:50.636Z,87.08
2023-01-10T06:13:18.240Z,87.09
2023-01-10T06:15:45.633Z,88.18
2023-01-10T06:18:13.187Z,87.45
2023-01-10T06:20:41.442Z,86.59
2023-01-10T06:23:08.827Z,87.13
2023-01-10T06:25:40.724Z,87.17
2023-01-10T06:28:09.532Z,87.80
2023-01-10T06:30:37.110Z,87.44
2023-01-10T06:33:09.269Z,86.63
2023-01-10T06:35:36.823Z,86.45
2023-01-10T06:38:04.817Z,86.11
2023-01-10T06:40:32.366Z,86.78
2023-01-10T06:43:00.106Z,86.92
2023-01-10T06:45:26.970Z,87.80
2023-01-10T06:47:54.234Z,87.83
2023-01-10T06:50:22.503Z,88.13
2023-01-10T06:52:58.393Z,87.57
2023-01-10T06:55:26.592Z,87.13
2023-01-10T06:58:01.257Z,87.84
2023-01-10T07:00:29.636Z,87.99
2023-01-10T07:03:01.213Z,88.03
2023-01-10T07:05:29.827Z,87.86
2023-01-10T07:07:58.615Z,88.39
2023-01-10T07:10:26.278Z,87.98
2023-01-10T07:12:56.030Z,87.52
2023-01-10T07:15:23.389Z,88.50
2023-01-10T07:17:50.942Z,87.57
2023-01-10T07:20:20.146Z,88.42
2023-01-10T07:22:57.117Z,87.83
2023-01-10T07:25:25.919Z,87.83
2023-01-10T07:27:55.690Z,88.70
2023-01-10T07:30:25.400Z,88.11
2023-01-10T07:32:55.210Z,88.32
2023-01-10T07:35:22.986Z,88.38
2023-01-10T07:37:49.996Z,88.28
2023-01-10T07:40:17.223Z,88.69
2023-01-10T07:42:44.584Z,87.83
2023-01-10T07:45:12.172Z,87.73
2023-01-10T07:47:39.418Z,87.68
2023-01-10T07:50:07.353Z,87.40
2023-01-10T07:52:35.033Z,87.51
2023-01-10T07:55:02.268Z,87.14
2023-01-10T07:57:29.941Z,87.16
2023-01-10T07:59:57.331Z,88.04
2023-01-10T08:02:24.684Z,88.41
2023-01-10T08:04:52.093Z,88.41
2023-01-10T08:07:19.333Z,88.73
2023-01-10T08:09:46.550Z,87.84
2023-01-10T08:12:14.072Z,88.35
2023-01-10T08:14:41.406Z,87.65
2023-01-10T08:17:08.530Z,88.04
2023-01-10T08:19:35.854Z,87.40
2023-01-10T08:22:03.200Z,87.54
2023-01-10T08:24:30.367Z,87.13
2023-01-10T08:27:00.732Z,87.31
2023-01-10T08:29:28.900Z,87.54
2023-01-10T08:31:56.184Z,87.76
2023-01-10T08:34:23.891Z,87.58
2023-01-10T08:36:52.615Z,87.26
2023-01-10T08:39:23.460Z,88.04
2023-01-10T08:41:50.930Z,87.88
2023-01-10T08:44:18.027Z,87.07
2023-01-10T08:46:46.134Z,87.68
2023-01-10T08:49:13.649Z,87.49
2023-01-10T08:51:41.051Z,88.33
2023-01-10T08:54:08.352Z,87.86
2023-01-10T08:56:37.585Z,88.82
2023-01-10T08:59:05.031Z,89.03
2023-01-10T09:01:32.428Z,88.58
2023-01-10T09:04:00.190Z,89.02
2023-01-10T09:06:27.384Z,89.24
2023-01-10T09:08:55.180Z,89.72
2023-01-10T09:11:22.421Z,89.55
2023-01-10T09:13:51.195Z,89.81
2023-01-10T09:16:19.522Z,89.42
2023-01-10T09:18:47.275Z,89.52
2023-01-10T09:21:14.513Z,89.39
2023-01-10T09:23:43.820Z,89.33
2023-01-10T09:26:11.185Z,88.99
2023-01-10T09:28:38.833Z,88.97
2023-01-10T09:31:09.004Z,88.62
2023-01-10T09:33:46.199Z,88.69
2023-01-10T09:36:15.966Z,88.56
2023-01-10T09:38:43.861Z,88.35
2023-01-10T09:41:29.945Z,88.75
2023-01-10T09:44:01.348Z,88.20
2023-01-10T09:46:58.104Z,88.74
2023-01-10T09:49:45.311Z,87.78
2023-01-10T09:52:23.253Z,88.62
2023-01-10T09:54:52.712Z,88.14
2023-01-10T09:57:22.011Z,88.62
2023-01-10T09:59:52.035Z,88.63
2023-01-10T10:02:33.497Z,88.67
2023-01-10T10:05:18.525Z,88.60
2023-01-10T10:07:46.759Z,88.37
2023-01-10T10:10:26.932Z,88.50
2023-01-10T10:13:11.588Z,87.98
2023-01-10T10:15:47.184Z,87.75
2023-01-10T10:18:17.532Z,87.89
2023-01-10T10:20:56.592Z,87.51
2023-01-10T10:23:34.373Z,87.77
2023-01-10T10:26:13.685Z,87.72
2023-01-10T10:28:59.081Z,88.08
2023-01-10T10:31:39.431Z,87.71
2023-01-10T10:34:36.955Z,87.35
2023-01-10T10:37:20.677Z,87.58
2023-01-10T10:39:54.050Z,87.75
2023-01-10T10:42:21.963Z,87.34
2023-01-10T10:45:17.551Z,87.23
2023-01-10T10:47:50.611Z,86.62
2023-01-10T10:50:24.910Z,86.42
2023-01-10T10:52:52.392Z,87.25
2023-01-10T10:55:42.342Z,86.91
2023-01-10T10:58:13.804Z,86.86
2023-01-10T11:00:42.011Z,86.50
2023-01-10T11:03:27.894Z,86.15
2023-01-10T11:05:55.561Z,86.33
2023-01-10T11:08:23.857Z,86.32
2023-01-10T11:10:55.634Z,85.67
2023-01-10T11:13:35.393Z,85.51
2023-01-10T11:16:05.566Z,85.54
2023-01-10T11:18:33.965Z,85.22
2023-01-10T11:21:07.738Z,85.44
2023-01-10T11:24:00.451Z,85.77
2023-01-10T11:26:28.338Z,85.45
2023-01-10T11:29:14.430Z,84.92
2023-01-10T11:31:43.013Z,85.17
2023-01-10T11:34:35.181Z,85.40
2023-01-10T11:37:06.492Z,85.59
2023-01-10T11:39:35.717Z,85.58
2023-01-10T11:42:26.673Z,85.29
2023-01-10T11:44:56.662Z,85.51
2023-01-10T11:47:26.519Z,86.06
2023-01-10T11:49:56.704Z,85.77
2023-01-10T11:52:31.327Z,85.17
2023-01-10T11:55:02.869Z,84.87
2023-01-10T11:57:34.874Z,84.64
2023-01-10T12:00:10.671Z,85.03
2023-01-10T12:02:45.375Z,85.41
2023-01-10T12:05:24.910Z,85.55
2023-01-10T12:07:59.847Z,85.19
2023-01-10T12:10:30.748Z,85.33
2023-01-10T12:13:02.207Z,85.92
2023-01-10T12:15:32.963Z,86.08
2023-01-10T12:18:04.156Z,85.40
2023-01-10T12:20:38.093Z,86.27
2023-01-10T12:23:09.712Z,86.60
2023-01-10T12:25:44.112Z,86.27
2023-01-10T12:28:30.856Z,86.43
2023-01-10T12:31:00.984Z,86.07
2023-01-10T12:33:54.704Z,85.99
2023-01-10T12:36:45.597Z,86.39
2023-01-10T12:39:24.222Z,86.38
2023-01-10T12:42:33.561Z,86.46
2023-01-10T12:45:05.395Z,86.68
2023-01-10T12:48:18.328Z,86.59
2023-01-10T12:50:54.578Z,86.80
2023-01-10T12:53:45.134Z,86.79
2023-01-10T12:56:15.935Z,86.49
2023-01-10T12:58:45.111Z,85.60
2023-01-10T13:01:16.933Z,86.42
2023-01-10T13:03:46.861Z,86.22
2023-01-10T13:06:28.332Z,85.89
2023-01-10T13:08:58.912Z,85.01
2023-01-10T13:11:30.639Z,85.76
2023-01-10T13:14:01.724Z,85.33
2023-01-10T13:16:55.750Z,85.32
2023-01-10T13:19:26.905Z,84.57
2023-01-10T13:22:23.248Z,85.62
2023-01-10T13:25:02.352Z,84.75
2023-01-10T13:27:36.153Z,85.50
2023-01-10T13:30:05.608Z,85.09
2023-01-10T13:32:37.181Z,85.18
2023-01-10T13:35:17.619Z,86.23
2023-01-10T13:37:53.083Z,86.32
2023-01-10T13:40:27.897Z,87.10
2023-01-10T13:43:37.130Z,87.54
2023-01-10T13:46:17.966Z,88.19
2023-01-10T13:48:51.839Z,88.50
2023-01-10T13:51:24.319Z,88.68
2023-01-10T13:53:57.350Z,89.33
2023-01-10T13:56:45.439Z,89.96
2023-01-10T13:59:44.501Z,90.23
2023-01-10T14:02:32.625Z,90.73
2023-01-10T14:05:05.551Z,90.90
2023-01-10T14:07:52.869Z,90.67
2023-01-10T14:10:29.029Z,90.79
2023-01-10T14:13:10.266Z,90.49
2023-01-10T14:15:48.501Z,90.76
2023-01-10T14:18:23.892Z,91.62
2023-01-10T14:21:02.209Z,91.15
2023-01-10T14:23:44.914Z,92.19
2023-01-10T14:26:28.257Z,91.39
2023-01-10T14:28:57.384Z,92.34
2023-01-10T14:31:26.931Z,92.11
2023-01-10T14:33:56.437Z,91.60
2023-01-10T14:36:32.731Z,92.74
2023-01-10T14:39:04.082Z,92.89
2023-01-10T14:41:37.206Z,92.94
2023-01-10T14:44:15.043Z,93.25
2023-01-10T14:46:52.700Z,92.84
2023-01-10T14:49:25.024Z,93.14
2023-01-10T14:52:12.638Z,93.00
2023-01-10T14:54:41.652Z,93.43
2023-01-10T14:57:22.111Z,93.45
2023-01-10T14:59:52.811Z,92.64
2023-01-10T15:02:24.576Z,93.70
2023-01-10T15:05:10.841Z,92.77
2023-01-10T15:07:40.271Z,93.17
2023-01-10T15:10:29.151Z,93.38
2023-01-10T15:13:07.662Z,93.25
2023-01-10T15:15:40.046Z,93.25
2023-01-10T15:18:46.136Z,93.39
2023-01-10T15:21:20.609Z,93.78
2023-01-10T15:23:51.556Z,93.24
2023-01-10T15:26:28.370Z,93.78
2023-01-10T15:29:18.100Z,94.20
2023-01-10T15:31:47.792Z,94.03
2023-01-10T15:34:22.542Z,94.36
2023-01-10T15:36:54.410Z,93.88
2023-01-10T15:39:26.890Z,93.56
2023-01-10T15:42:05.455Z,93.93
2023-01-10T15:44:41.601Z,93.93
2023-01-10T15:47:38.521Z,94.96
2023-01-10T15:50:47.274Z,94.27
2023-01-10T15:53:16.931Z,94.25
2023-01-10T15:55:53.089Z,95.02
2023-01-10T15:58:38.016Z,94.24
2023-01-10T16:01:08.180Z,94.94
2023-01-10T16:03:51.922Z,94.24
2023-01-10T16:06:44.321Z,94.72
2023-01-10T16:09:24.992Z,94.52
2023-01-10T16:12:13.491Z,94.62
2023-01-10T16:14:43.501Z,94.54
2023-01-10T16:17:13.996Z,95.54
2023-01-10T16:19:43.933Z,94.64
2023-01-10T16:22:19.832Z,95.27
2023-01-10T16:24:53.915Z,94.75
2023-01-10T16:27:24.130Z,94.80
2023-01-10T16:29:57.710Z,94.75
2023-01-10T16:32:28.474Z,94.73
2023-01-10T16:34:58.775Z,94.30
2023-01-10T16:37:28.891Z,94.89
2023-01-10T16:39:58.936Z,95.46
2023-01-10T16:42:55.195Z,95.22
2023-01-10T16:45:29.422Z,95.35
2023-01-10T16:47:58.672Z,95.09
2023-01-10T16:50:29.201Z,95.03
2023-01-10T16:53:00.707Z,95.21
2023-01-10T16:55:56.780Z,95.27
2023-01-10T16:58:26.887Z,95.35
2023-01-10T17:00:56.343Z,95.89
2023-01-10T17:03:27.957Z,95.44
2023-01-10T17:05:57.930Z,96.11
2023-01-10T17:08:27.530Z,95.68
2023-01-10T17:11:00.694Z,95.65
2023-01-10T17:13:34.324Z,95.03
2023-01-10T17:16:04.177Z,95.84
2023-01-10T17:18:33.569Z,95.33
2023-01-10T17:21:02.726Z,95.65
2023-01-10T17:23:31.842Z,96.13
2023-01-10T17:26:05.087Z,96.46
2023-01-10T17:28:34.089Z,95.86
2023-01-10T17:31:03.959Z,96.02
2023-01-10T17:33:35.124Z,96.52
2023-01-10T17:36:04.074Z,96.22
2023-01-10T17:38:33.156Z,96.33
2023-01-10T17:41:02.871Z,96.51
2023-01-10T17:43:32.513Z,96.20
2023-01-10T17:46:01.592Z,96.38
2023-01-10T17:48:30.288Z,96.21
2023-01-10T17:51:01.798Z,95.85
2023-01-10T17:53:31.172Z,95.86
2023-01-10T17:56:01.915Z,96.34
2023-01-10T17:58:32.089Z,95.65
2023-01-10T18:01:00.636Z,95.87
2023-01-10T18:03:29.751Z,96.19
2023-01-10T18:05:59.477Z,96.12
2023-01-10T18:08:27.785Z,95.95
2023-01-10T18:11:03.752Z,95.55
2023-01-10T18:13:32.201Z,96.50
2023-01-10T18:16:01.374Z,95.92
2023-01-10T18:18:30.098Z,96.00
2023-01-10T18:21:02.021Z,96.39
2023-01-10T18:23:32.261Z,95.95
2023-01-10T18:26:06.368Z,95.98
2023-01-10T18:28:42.597Z,96.35
2023-01-10T18:31:18.173Z,95.63
2023-01-10T18:33:48.175Z,96.38
2023-01-10T18:36:20.727Z,96.81
2023-01-10T18:38:50.668Z,96.45
2023-01-10T18:41:20.874Z,96.84
2023-01-10T18:43:50.027Z,96.39
2023-01-10T18:46:21.588Z,96.14
2023-01-10T18:48:53.420Z,96.11
2023-01-10T18:51:23.995Z,96.15
2023-01-10T18:53:53.988Z,96.18
2023-01-10T18:56:23.107Z,96.09
2023-01-10T18:58:52.024Z,95.70
2023-01-10T19:01:23.114Z,96.61
2023-01-10T19:03:52.827Z,95.04
2023-01-10T19:06:23.514Z,95.73
2023-01-10T19:08:52.755Z,95.38
2023-01-10T19:11:21.859Z,95.41
2023-01-10T19:13:54.094Z,94.80
2023-01-10T19:16:25.455Z,95.41
2023-01-10T19:19:06.420Z,94.88
2023-01-10T19:21:37.010Z,95.29
2023-01-10T19:24:09.042Z,94.90
2023-01-10T19:26:38.101Z,94.51
2023-01-10T19:29:07.029Z,94.66
2023-01-10T19:31:36.115Z,94.91
2023-01-10T19:34:04.931Z,94.94
2023-01-10T19:36:35.529Z,95.16
2023-01-10T19:39:06.153Z,95.17
2023-01-10T19:41:38.089Z,94.48
2023-01-10T19:44:16.800Z,94.57
2023-01-10T19:46:48.336Z,94.52
2023-01-10T19:49:20.431Z,93.96
2023-01-10T19:51:52.235Z,93.85
2023-01-10T19:54:21.582Z,93.87
2023-01-10T19:56:52.157Z,94.37
2023-01-10T19:59:21.358Z,93.63
2023-01-10T20:01:50.379Z,93.71
2023-01-10T20:04:19.432Z,94.16
2023-01-10T20:06:48.552Z,93.59
2023-01-10T20:09:17.582Z,93.67
2023-01-10T20:11:47.789Z,93.78
2023-01-10T20:14:21.894Z,94.34
2023-01-10T20:16:52.078Z,94.00
2023-01-10T20:19:22.498Z,92.99
2023-01-10T20:21:51.576Z,93.73
2023-01-10T20:24:22.235Z,93.67
2023-01-10T20:26:52.683Z,94.45
2023-01-10T20:29:21.959Z,94.44
2023-01-10T20:31:54.611Z,94.20
2023-01-10T20:34:23.943Z,94.81
2023-01-10T20:36:53.488Z,94.77
2023-01-10T20:39:24.293Z,94.89
2023-01-10T20:41:54.006Z,95.23
2023-01-10T20:44:23.553Z,95.42
2023-01-10T20:46:53.054Z,94.66
2023-01-10T20:49:22.812Z,95.76
2023-01-10T20:51:54.702Z,95.73
2023-01-10T20:54:24.199Z,95.42
2023-01-10T20:56:53.305Z,95.30
2023-01-10T20:59:23.960Z,95.62
2023-01-10T21:01:54.312Z,95.37
2023-01-10T21:04:23.577Z,96.17
2023-01-10T21:06:52.817Z,96.19
2023-01-10T21:09:21.991Z,96.25
2023-01-10T21:12:02.117Z,96.01
2023-01-10T21:14:33.184Z,96.14
2023-01-10T21:17:02.079Z,95.79
2023-01-10T21:19:31.082Z,95.52
2023-01-10T21:21:59.991Z,95.60
2023-01-10T21:24:29.143Z,95.30
2023-01-10T21:26:58.036Z,95.85
2023-01-10T21:29:26.921Z,95.82
2023-01-10T21:31:56.012Z,95.27
2023-01-10T21:34:25.110Z,95.33
2023-01-10T21:36:55.134Z,95.58
2023-01-10T21:39:23.837Z,95.37
2023-01-10T21:42:10.634Z,95.47
2023-01-10T21:44:39.232Z,95.84
2023-01-10T21:47:08.080Z,95.26
2023-01-10T21:49:36.488Z,95.41
2023-01-10T21:52:04.750Z,94.90
2023-01-10T21:54:33.090Z,94.83
2023-01-10T21:57:00.844Z,94.85
2023-01-10T21:59:28.724Z,94.91
2023-01-10T22:01:56.664Z,94.97
2023-01-10T22:04:24.589Z,94.70
2023-01-10T22:06:52.026Z,94.75
2023-01-10T22:09:19.544Z,94.64
2023-01-10T22:11:46.479Z,94.96
2023-01-10T22:14:13.383Z,95.45
2023-01-10T22:16:40.080Z,95.30
2023-01-10T22:19:07.244Z,95.40
2023-01-10T22:21:33.953Z,95.44
2023-01-10T22:24:00.700Z,95.92
2023-01-10T22:26:27.816Z,95.86
2023-01-10T22:28:55.013Z,95.96
2023-01-10T22:31:21.940Z,96.12
2023-01-10T22:33:49.946Z,95.55
2023-01-10T22:36:18.545Z,95.52
2023-01-10T22:38:46.193Z,95.31
2023-01-10T22:41:27.560Z,95.67
2023-01-10T22:43:55.283Z,94.51
2023-01-10T22:46:22.337Z,95.05
2023-01-10T22:48:49.212Z,95.14
2023-01-10T22:51:17.746Z,94.90
2023-01-10T22:53:50.090Z,94.97
2023-01-10T22:56:16.983Z,95.32
2023-01-10T22:58:47.909Z,95.59
2023-01-10T23:01:16.471Z,95.54
2023-01-10T23:03:43.447Z,95.55
2023-01-10T23:06:10.955Z,95.35
2023-01-10T23:08:39.548Z,95.69
2023-01-10T23:11:07.045Z,95.02
2023-01-10T23:13:34.792Z,95.13
2023-01-10T23:16:06.883Z,95.58
2023-01-10T23:18:34.271Z,95.40
2023-01-10T23:21:01.535Z,95.69
2023-01-10T23:23:28.800Z,95.63
2023-01-10T23:26:03.589Z,95.94
2023-01-10T23:28:34.739Z,95.99
2023-01-10T23:31:02.343Z,96.22
2023-01-10T23:33:29.296Z,95.95
2023-01-10T23:35:56.328Z,95.88
2023-01-10T23:38:23.374Z,96.04
2023-01-10T23:40:50.460Z,95.99
2023-01-10T23:43:17.254Z,96.04
2023-01-10T23:45:44.368Z,96.13
2023-01-10T23:48:11.993Z,95.84
2023-01-10T23:50:39.114Z,95.98
2023-01-10T23:53:06.398Z,96.48
2023-01-10T23:55:33.385Z,96.12
2023-01-10T23:58:00.539Z,96.27
